createdAt,value
2022-09-07T00:02:15.303Z,24.00
2022-09-07T00:05:09.313Z,24.00
2022-09-07T00:07:56.304Z,24.00
2022-09-07T00:10:36.382Z,23.90
2022-09-07T00:13:23.313Z,23.80
2022-09-07T00:16:10.378Z,23.80
2022-09-07T00:18:59.334Z,23.70
2022-09-07T00:21:47.306Z,23.70
2022-09-07T00:24:34.321Z,23.70
2022-09-07T00:27:21.312Z,23.60
2022-09-07T00:30:01.822Z,23.60
2022-09-07T00:32:48.314Z,23.60
2022-09-07T00:35:35.313Z,23.50
2022-09-07T00:38:16.477Z,23.50
2022-09-07T00:41:03.306Z,23.40
2022-09-07T00:43:55.429Z,23.40
2022-09-07T00:46:43.341Z,23.30
2022-09-07T00:49:34.318Z,23.30
2022-09-07T00:52:17.730Z,23.30
2022-09-07T00:55:11.314Z,23.30
2022-09-07T00:58:02.430Z,23.30
2022-09-07T01:00:42.301Z,23.30
2022-09-07T01:03:36.382Z,23.30
2022-09-07T01:06:30.313Z,23.30
2022-09-07T01:09:14.458Z,23.20
2022-09-07T01:12:05.331Z,23.20
2022-09-07T01:14:52.406Z,23.20
2022-09-07T01:18:10.316Z,23.10
2022-09-07T01:21:28.423Z,23.10
2022-09-07T01:24:34.331Z,23.10
2022-09-07T01:27:52.313Z,23.10
2022-09-07T01:30:37.492Z,23.10
2022-09-07T01:33:38.329Z,23.10
2022-09-07T01:36:40.379Z,23.10
2022-09-07T01:39:21.346Z,23.10
2022-09-07T01:42:08.610Z,23.10
2022-09-07T01:45:09.319Z,23.10
2022-09-07T01:47:55.349Z,23.10
2022-09-07T01:50:52.321Z,23.10
2022-09-07T01:53:45.045Z,23.00
2022-09-07T01:56:46.328Z,23.00
2022-09-07T01:59:39.417Z,23.00
2022-09-07T02:02:28.368Z,23.00
2022-09-07T02:05:40.310Z,23.00
2022-09-07T02:08:35.335Z,22.90
2022-09-07T02:11:28.321Z,22.90
2022-09-07T02:14:21.415Z,22.90
2022-09-07T02:17:21.338Z,22.90
2022-09-07T02:20:09.632Z,22.90
2022-09-07T02:23:01.331Z,22.90
2022-09-07T02:26:06.397Z,22.90
2022-09-07T02:28:47.333Z,22.90
2022-09-07T02:31:35.383Z,22.90
2022-09-07T02:34:15.398Z,22.80
2022-09-07T02:37:03.330Z,22.80
2022-09-07T02:39:43.421Z,22.80
2022-09-07T02:42:30.336Z,22.80
2022-09-07T02:45:21.324Z,22.80
2022-09-07T02:48:22.340Z,22.80
2022-09-07T02:51:17.373Z,22.80
2022-09-07T02:54:17.361Z,22.80
2022-09-07T02:57:21.389Z,22.80
2022-09-07T03:00:15.334Z,22.80
2022-09-07T03:03:16.399Z,22.80
2022-09-07T03:06:10.332Z,22.80
2022-09-07T03:08:59.381Z,22.80
2022-09-07T03:11:46.328Z,22.70
2022-09-07T03:14:33.273Z,22.70
2022-09-07T03:17:20.350Z,22.70
2022-09-07T03:20:00.414Z,22.60
2022-09-07T03:22:47.337Z,22.60
2022-09-07T03:25:27.379Z,22.60
2022-09-07T03:28:14.354Z,22.60
2022-09-07T03:30:54.396Z,22.60
2022-09-07T03:33:41.350Z,22.60
2022-09-07T03:36:28.334Z,22.60
2022-09-07T03:39:18.355Z,22.60
2022-09-07T03:41:58.392Z,22.60
2022-09-07T03:44:45.330Z,22.60
2022-09-07T03:47:25.415Z,22.60
2022-09-07T03:50:13.347Z,22.50
2022-09-07T03:53:00.374Z,22.50
2022-09-07T03:55:40.952Z,22.50
2022-09-07T03:58:27.423Z,22.50
2022-09-07T04:01:22.420Z,22.50
2022-09-07T04:04:06.393Z,22.50
2022-09-07T04:07:00.355Z,22.60
2022-09-07T04:09:47.389Z,22.60
2022-09-07T04:12:27.365Z,22.50
2022-09-07T04:15:14.406Z,22.50
2022-09-07T04:17:54.351Z,22.50
2022-09-07T04:20:41.400Z,22.50
2022-09-07T04:23:28.326Z,22.40
2022-09-07T04:26:25.356Z,22.40
2022-09-07T04:29:06.915Z,22.40
2022-09-07T04:31:53.351Z,22.40
2022-09-07T04:34:33.440Z,22.40
2022-09-07T04:37:20.345Z,22.40
2022-09-07T04:40:00.503Z,22.40
2022-09-07T04:42:47.341Z,22.40
2022-09-07T04:45:34.377Z,22.30
2022-09-07T04:48:21.350Z,22.30
2022-09-07T04:51:08.361Z,22.30
2022-09-07T04:53:50.486Z,22.30
2022-09-07T04:56:37.374Z,22.30
2022-09-07T04:59:17.930Z,22.40
2022-09-07T05:02:04.383Z,22.40
2022-09-07T05:05:02.480Z,22.40
2022-09-07T05:07:56.351Z,22.40
2022-09-07T05:10:43.361Z,22.50
2022-09-07T05:13:30.352Z,22.50
2022-09-07T05:16:16.849Z,22.50
2022-09-07T05:19:09.360Z,22.40
2022-09-07T05:21:56.394Z,22.40
2022-09-07T05:24:36.365Z,22.40
2022-09-07T05:27:23.394Z,22.40
2022-09-07T05:30:04.457Z,22.40
2022-09-07T05:32:52.353Z,22.40
2022-09-07T05:35:32.398Z,22.40
2022-09-07T05:38:19.374Z,22.40
2022-09-07T05:40:59.429Z,22.40
2022-09-07T05:46:47.371Z,22.50
2022-09-07T05:49:27.421Z,22.60
2022-09-07T05:52:14.371Z,22.60
2022-09-07T05:54:59.260Z,22.60
2022-09-07T05:57:54.376Z,22.50
2022-09-07T06:00:41.388Z,22.50
2022-09-07T06:03:28.597Z,22.50
2022-09-07T06:06:21.354Z,22.60
2022-09-07T06:09:01.430Z,22.50
2022-09-07T06:11:48.377Z,22.60
2022-09-07T06:14:28.451Z,22.60
2022-09-07T06:17:15.369Z,22.70
2022-09-07T06:19:55.434Z,22.80
2022-09-07T06:22:43.376Z,22.90
2022-09-07T06:25:31.378Z,22.90
2022-09-07T06:28:18.436Z,23.00
2022-09-07T06:30:58.371Z,23.20
2022-09-07T06:33:54.352Z,23.30
2022-09-07T06:36:41.375Z,23.40
2022-09-07T06:39:22.409Z,23.40
2022-09-07T06:42:12.375Z,23.50
2022-09-07T06:45:05.381Z,23.70
2022-09-07T06:47:52.448Z,23.70
2022-09-07T06:50:34.367Z,23.80
2022-09-07T06:53:38.523Z,24.00
2022-09-07T06:56:23.407Z,24.20
2022-09-07T06:59:10.750Z,24.40
2022-09-07T07:01:50.380Z,24.60
2022-09-07T07:04:44.373Z,24.80
2022-09-07T07:07:38.386Z,24.90
2022-09-07T07:10:25.434Z,25.20
2022-09-07T07:13:05.432Z,25.40
2022-09-07T07:15:53.390Z,25.70
2022-09-07T07:18:33.570Z,26.00
2022-09-07T07:21:21.378Z,26.30
2022-09-07T07:24:08.462Z,26.60
2022-09-07T07:26:55.394Z,26.90
2022-09-07T07:29:35.498Z,27.10
2022-09-07T07:32:22.377Z,27.20
2022-09-07T07:35:02.461Z,27.40
2022-09-07T07:37:49.396Z,27.80
2022-09-07T07:40:31.836Z,28.00
2022-09-07T07:43:20.353Z,28.30
2022-09-07T07:46:07.376Z,28.60
2022-09-07T07:48:54.381Z,28.80
2022-09-07T07:52:49.833Z,28.80
2022-09-07T07:54:44.341Z,28.80
2022-09-07T07:57:31.338Z,28.90
2022-09-07T08:00:37.359Z,29.00
2022-09-07T08:03:21.428Z,29.10
2022-09-07T08:06:14.347Z,29.30
2022-09-07T08:08:55.902Z,29.40
2022-09-07T08:11:42.347Z,29.60
2022-09-07T08:14:22.401Z,29.60
2022-09-07T08:17:09.345Z,29.70
2022-09-07T08:19:49.474Z,29.80
2022-09-07T08:22:36.354Z,29.90
2022-09-07T08:25:17.418Z,30.10
2022-09-07T08:28:04.349Z,30.30
2022-09-07T08:30:53.337Z,30.40
2022-09-07T08:33:44.371Z,30.50
2022-09-07T08:36:27.426Z,30.60
2022-09-07T08:39:14.390Z,30.80
2022-09-07T08:42:38.424Z,31.00
2022-09-07T08:45:36.371Z,31.30
2022-09-07T08:48:28.359Z,31.50
2022-09-07T08:51:40.527Z,31.70
2022-09-07T08:54:27.361Z,31.80
2022-09-07T08:57:25.715Z,31.90
2022-09-07T09:00:22.364Z,32.00
2022-09-07T09:03:30.497Z,32.10
2022-09-07T09:06:29.499Z,32.30
2022-09-07T09:09:12.360Z,32.50
2022-09-07T09:11:56.135Z,32.60
2022-09-07T09:15:03.355Z,32.80
2022-09-07T09:17:57.369Z,33.00
2022-09-07T09:20:51.392Z,33.20
2022-09-07T09:23:43.368Z,33.40
2022-09-07T09:26:30.420Z,33.50
2022-09-07T09:29:29.361Z,33.60
2022-09-07T09:32:36.603Z,33.50
2022-09-07T09:35:30.355Z,33.60
2022-09-07T09:38:18.400Z,33.70
2022-09-07T09:41:43.417Z,33.80
2022-09-07T09:44:24.416Z,33.80
2022-09-07T09:52:28.981Z,33.90
2022-09-07T09:53:54.365Z,33.90
2022-09-07T09:56:53.121Z,33.80
2022-09-07T09:59:58.125Z,33.80
2022-09-07T10:06:00.406Z,34.00
2022-09-07T10:08:57.875Z,34.00
2022-09-07T10:12:07.654Z,34.10
2022-09-07T10:14:56.454Z,34.10
2022-09-07T10:17:42.413Z,34.10
2022-09-07T10:20:29.378Z,34.20
2022-09-07T10:23:19.397Z,34.20
2022-09-07T10:26:45.372Z,34.20
2022-09-07T10:29:41.412Z,34.20
2022-09-07T10:33:08.391Z,34.30
2022-09-07T10:36:05.293Z,34.30
2022-09-07T10:39:00.529Z,34.30
2022-09-07T10:42:00.462Z,34.40
2022-09-07T10:44:59.393Z,34.40
2022-09-07T10:48:10.442Z,34.20
2022-09-07T10:51:14.205Z,34.10
2022-09-07T10:57:50.413Z,34.00
2022-09-07T11:00:53.438Z,33.90
2022-09-07T11:03:39.743Z,34.00
2022-09-07T11:06:42.402Z,33.90
2022-09-07T11:10:02.633Z,33.90
2022-09-07T11:12:52.397Z,33.80
2022-09-07T11:15:54.448Z,33.80
2022-09-07T11:18:43.489Z,33.70
2022-09-07T11:28:27.523Z,33.80
2022-09-07T11:31:20.452Z,33.80
2022-09-07T11:34:45.145Z,33.80
2022-09-07T11:37:28.390Z,33.70
2022-09-07T11:40:25.153Z,33.80
2022-09-07T11:43:34.404Z,33.60
2022-09-07T11:46:47.525Z,33.40
2022-09-07T11:49:29.405Z,33.20
2022-09-07T11:52:42.412Z,33.00
2022-09-07T11:55:31.470Z,32.80
2022-09-07T11:58:36.404Z,32.60
2022-09-07T12:01:22.944Z,32.50
2022-09-07T12:04:35.468Z,32.40
2022-09-07T12:07:38.492Z,32.30
2022-09-07T12:10:27.408Z,32.30
2022-09-07T12:13:26.529Z,32.30
2022-09-07T12:16:15.479Z,32.30
2022-09-07T12:19:18.414Z,32.30
2022-09-07T12:21:59.547Z,32.30
2022-09-07T12:24:51.454Z,32.30
2022-09-07T12:27:38.428Z,32.30
2022-09-07T12:30:22.066Z,32.30
2022-09-07T12:33:29.422Z,32.30
2022-09-07T12:36:39.417Z,32.30
2022-09-07T12:39:29.519Z,32.30
2022-09-07T12:42:37.507Z,32.30
2022-09-07T12:45:35.473Z,32.30
2022-09-07T12:48:22.425Z,32.30
2022-09-07T12:51:09.552Z,32.30
2022-09-07T12:54:21.556Z,32.10
2022-09-07T12:57:35.706Z,32.00
2022-09-07T13:00:43.433Z,31.90
2022-09-07T13:07:07.606Z,31.80
2022-09-07T13:09:57.452Z,31.60
2022-09-07T13:12:57.313Z,31.50
2022-09-07T13:15:46.483Z,31.50
2022-09-07T13:18:32.584Z,31.30
2022-09-07T13:21:35.436Z,31.30
2022-09-07T13:27:51.182Z,31.20
2022-09-07T13:30:35.615Z,31.00
2022-09-07T13:33:31.646Z,31.00
2022-09-07T13:36:19.426Z,30.90
2022-09-07T13:39:06.496Z,30.80
2022-09-07T13:41:59.424Z,30.80
2022-09-07T13:44:41.674Z,30.70
2022-09-07T13:47:38.432Z,30.60
2022-09-07T13:50:43.417Z,30.50
2022-09-07T13:54:08.437Z,30.50
2022-09-07T13:57:17.450Z,30.30
2022-09-07T14:00:04.445Z,30.30
2022-09-07T14:02:56.481Z,30.20
2022-09-07T14:05:37.230Z,30.20
2022-09-07T14:08:43.439Z,30.10
2022-09-07T14:11:36.457Z,30.10
2022-09-07T14:14:22.578Z,30.00
2022-09-07T14:17:12.459Z,29.90
2022-09-07T14:19:55.494Z,29.90
2022-09-07T14:22:42.432Z,29.80
2022-09-07T14:25:26.061Z,29.70
2022-09-07T14:28:36.458Z,29.70
2022-09-07T14:31:22.603Z,29.60
2022-09-07T14:34:09.490Z,29.60
2022-09-07T14:36:56.458Z,29.50
2022-09-07T14:39:46.550Z,29.50
2022-09-07T14:42:30.437Z,29.40
2022-09-07T14:45:19.957Z,29.40
2022-09-07T14:48:08.437Z,29.40
2022-09-07T14:51:18.568Z,29.40
2022-09-07T14:54:04.448Z,29.30
2022-09-07T14:57:20.861Z,29.30
2022-09-07T15:00:07.452Z,29.30
2022-09-07T15:02:48.114Z,29.20
2022-09-07T15:05:42.462Z,29.20
2022-09-07T15:08:52.446Z,29.10
2022-09-07T15:11:42.454Z,29.10
2022-09-07T15:14:26.501Z,29.10
2022-09-07T15:17:43.393Z,29.00
2022-09-07T15:20:51.501Z,28.90
2022-09-07T15:23:38.455Z,28.90
2022-09-07T15:29:29.231Z,28.90
2022-09-07T15:32:22.480Z,28.80
2022-09-07T15:35:03.107Z,28.80
2022-09-07T15:38:05.875Z,28.80
2022-09-07T15:41:20.779Z,28.80
2022-09-07T15:44:01.476Z,28.80
2022-09-07T15:47:42.031Z,28.70
2022-09-07T15:49:51.354Z,28.70
2022-09-07T15:52:39.573Z,28.70
2022-09-07T15:55:19.476Z,28.70
2022-09-07T15:58:11.717Z,28.60
2022-09-07T16:03:59.396Z,28.60
2022-09-07T16:06:48.270Z,28.60
2022-09-07T16:09:37.751Z,28.50
2022-09-07T16:15:27.079Z,28.40
2022-09-07T16:18:16.515Z,28.40
2022-09-07T16:21:03.478Z,28.40
2022-09-07T16:23:45.538Z,28.40
2022-09-07T16:26:32.469Z,28.30
2022-09-07T16:29:19.467Z,28.30
2022-09-07T16:35:06.563Z,28.30
2022-09-07T16:41:00.502Z,28.20
2022-09-07T16:43:47.478Z,28.10
2022-09-07T16:46:30.714Z,28.20
2022-09-07T16:49:19.479Z,28.10
2022-09-07T16:51:59.547Z,28.10
2022-09-07T16:54:46.498Z,28.10
2022-09-07T16:57:26.595Z,28.10
2022-09-07T17:00:14.511Z,28.00
2022-09-07T17:02:54.537Z,28.00
2022-09-07T17:05:46.473Z,28.00
2022-09-07T17:08:34.587Z,27.90
2022-09-07T17:11:20.499Z,27.90
2022-09-07T17:14:07.621Z,27.90
2022-09-07T17:16:47.531Z,27.80
2022-09-07T17:19:34.786Z,27.80
2022-09-07T17:22:14.492Z,27.80
2022-09-07T17:25:01.544Z,27.70
2022-09-07T17:27:44.047Z,27.70
2022-09-07T17:30:30.531Z,27.60
2022-09-07T17:33:10.606Z,27.60
2022-09-07T17:35:52.464Z,27.60
2022-09-07T17:41:40.020Z,27.60
2022-09-07T17:44:26.479Z,27.60
2022-09-07T17:47:13.621Z,27.60
2022-09-07T17:49:53.481Z,27.60
2022-09-07T17:52:36.694Z,27.50
2022-09-07T17:55:26.485Z,27.50
2022-09-07T17:58:13.501Z,27.60
2022-09-07T18:01:00.532Z,27.50
2022-09-07T18:03:48.521Z,27.50
2022-09-07T18:06:35.497Z,27.50
2022-09-07T18:09:22.506Z,27.50
2022-09-07T18:12:02.588Z,27.50
2022-09-07T18:14:50.487Z,27.40
2022-09-07T18:17:30.582Z,27.40
2022-09-07T18:20:18.997Z,27.40
2022-09-07T18:22:58.533Z,27.40
2022-09-07T18:25:45.500Z,27.40
2022-09-07T18:31:39.549Z,27.30
2022-09-07T18:34:26.501Z,27.30
2022-09-07T18:37:07.205Z,27.30
2022-09-07T18:39:54.509Z,27.20
2022-09-07T18:42:42.133Z,27.20
2022-09-07T18:45:28.771Z,27.20
2022-09-07T18:48:12.250Z,27.20
2022-09-07T18:51:00.230Z,27.10
2022-09-07T18:53:40.313Z,27.10
2022-09-07T18:56:29.503Z,27.10
2022-09-07T18:59:10.520Z,27.00
2022-09-07T19:02:01.498Z,27.00
2022-09-07T19:07:57.506Z,26.90
2022-09-07T19:10:51.522Z,26.80
2022-09-07T19:13:38.563Z,26.80
2022-09-07T19:16:21.607Z,26.70
2022-09-07T19:19:11.582Z,26.70
2022-09-07T19:21:52.503Z,26.70
2022-09-07T19:24:33.319Z,26.60
2022-09-07T19:27:19.522Z,26.60
2022-09-07T19:30:06.569Z,26.50
2022-09-07T19:32:46.505Z,26.50
2022-09-07T19:35:33.566Z,26.40
2022-09-07T19:38:13.522Z,26.30
2022-09-07T19:41:04.543Z,26.20
2022-09-07T19:43:44.690Z,26.20
2022-09-07T19:46:31.570Z,26.20
2022-09-07T19:49:12.154Z,26.10
2022-09-07T19:51:58.519Z,26.00
2022-09-07T19:54:38.575Z,26.00
2022-09-07T19:57:25.517Z,25.90
2022-09-07T20:00:05.853Z,25.90
2022-09-07T20:02:54.534Z,25.80
2022-09-07T20:05:34.568Z,25.80
2022-09-07T20:08:21.529Z,25.80
2022-09-07T20:11:08.304Z,25.80
2022-09-07T20:13:54.529Z,25.80
2022-09-07T20:16:38.529Z,25.80
2022-09-07T20:19:25.518Z,25.80
2022-09-07T20:22:05.674Z,25.80
2022-09-07T20:24:52.523Z,25.80
2022-09-07T20:27:35.742Z,25.80
2022-09-07T20:30:24.524Z,25.70
2022-09-07T20:33:05.612Z,25.60
2022-09-07T20:35:54.529Z,25.60
2022-09-07T20:38:34.581Z,25.50
2022-09-07T20:41:27.608Z,25.50
2022-09-07T20:44:09.606Z,25.40
2022-09-07T20:46:56.578Z,25.40
2022-09-07T20:49:36.577Z,25.40
2022-09-07T20:52:23.536Z,25.40
2022-09-07T20:55:03.598Z,25.40
2022-09-07T20:57:50.524Z,25.40
2022-09-07T21:00:31.212Z,25.40
2022-09-07T21:03:17.533Z,25.50
2022-09-07T21:05:57.588Z,25.50
2022-09-07T21:08:52.557Z,25.50
2022-09-07T21:11:35.185Z,25.60
2022-09-07T21:14:27.572Z,25.60
2022-09-07T21:17:14.949Z,25.60
2022-09-07T21:19:54.525Z,25.60
2022-09-07T21:22:41.685Z,25.60
2022-09-07T21:25:22.521Z,25.60
2022-09-07T21:28:09.547Z,25.60
2022-09-07T21:30:49.588Z,25.60
2022-09-07T21:33:38.537Z,25.60
2022-09-07T21:36:19.589Z,25.60
2022-09-07T21:39:06.529Z,25.60
2022-09-07T21:41:46.611Z,25.60
2022-09-07T21:44:33.533Z,25.60
2022-09-07T21:47:13.620Z,25.60
2022-09-07T21:50:00.541Z,25.60
2022-09-07T21:52:47.550Z,25.60
2022-09-07T21:55:28.086Z,25.60
2022-09-07T21:58:14.542Z,25.50
2022-09-07T22:00:56.502Z,25.50
2022-09-07T22:03:43.554Z,25.50
2022-09-07T22:06:24.962Z,25.50
2022-09-07T22:09:12.534Z,25.50
2022-09-07T22:11:59.554Z,25.50
2022-09-07T22:14:39.607Z,25.40
2022-09-07T22:17:26.546Z,25.40
2022-09-07T22:20:06.667Z,25.40
2022-09-07T22:22:53.537Z,25.40
2022-09-07T22:25:33.617Z,25.40
2022-09-07T22:28:21.540Z,25.40
2022-09-07T22:31:08.603Z,25.40
2022-09-07T22:33:59.525Z,25.30
2022-09-07T22:36:46.550Z,25.30
2022-09-07T22:39:27.247Z,25.30
2022-09-07T22:42:13.551Z,25.30
2022-09-07T22:45:01.557Z,25.30
2022-09-07T22:47:43.213Z,25.30
2022-09-07T22:50:29.544Z,25.20
2022-09-07T22:53:09.614Z,25.20
2022-09-07T22:55:56.547Z,25.20
2022-09-07T22:58:37.160Z,25.20
2022-09-07T23:01:23.545Z,25.20
2022-09-07T23:04:04.753Z,25.20
2022-09-07T23:06:51.592Z,25.20
2022-09-07T23:09:45.574Z,25.20
2022-09-07T23:12:32.595Z,25.20
2022-09-07T23:15:13.643Z,25.20
2022-09-07T23:18:00.602Z,25.20
2022-09-07T23:20:47.597Z,25.10
2022-09-07T23:23:35.638Z,25.10
2022-09-07T23:26:16.590Z,25.10
2022-09-07T23:29:06.635Z,25.10
2022-09-07T23:31:46.662Z,25.10
2022-09-07T23:34:33.684Z,25.10
2022-09-07T23:37:13.617Z,25.10
2022-09-07T23:40:00.700Z,25.10
2022-09-07T23:42:40.608Z,25.10
2022-09-07T23:45:21.079Z,25.10
2022-09-07T23:48:07.581Z,25.10
2022-09-07T23:50:54.666Z,25.00
2022-09-07T23:53:34.660Z,25.00
2022-09-07T23:56:21.605Z,25.00
2022-09-07T23:59:01.641Z,25.00
